createdAt,value
2019-05-26T00:00:15.742Z,1019.2
2019-05-26T00:01:15.787Z,1019.1
2019-05-26T00:02:15.819Z,1019.2
2019-05-26T00:03:15.823Z,1019.2
2019-05-26T00:04:15.875Z,1019.2
2019-05-26T00:05:15.873Z,1019.1
2019-05-26T00:06:15.899Z,1019.2
2019-05-26T00:07:29.646Z,1019.2
2019-05-26T00:08:15.957Z,1019.3
2019-05-26T00:09:15.993Z,1019.2
2019-05-26T00:10:16.026Z,1019.2
2019-05-26T00:11:16.045Z,1019.2
2019-05-26T00:12:16.154Z,1019.2
2019-05-26T00:13:16.126Z,1019.1
2019-05-26T00:14:16.127Z,1019.1
2019-05-26T00:15:16.137Z,1019.1
2019-05-26T00:16:16.215Z,1019.1
2019-05-26T00:17:16.177Z,1019
2019-05-26T00:18:16.203Z,1019.1
2019-05-26T00:19:16.235Z,1019
2019-05-26T00:20:16.231Z,1019
2019-05-26T00:21:16.299Z,1019
2019-05-26T00:22:16.280Z,1019
2019-05-26T00:23:16.295Z,1019
2019-05-26T00:24:16.328Z,1019
2019-05-26T00:25:16.370Z,1019
2019-05-26T00:26:16.380Z,1019
2019-05-26T00:27:16.381Z,1019
2019-05-26T00:28:16.405Z,1018.9
2019-05-26T00:29:17.474Z,1019
2019-05-26T00:30:16.411Z,1019
2019-05-26T00:31:16.563Z,1019
2019-05-26T00:32:16.447Z,1019
2019-05-26T00:33:16.442Z,1019
2019-05-26T00:34:16.458Z,1018.9
2019-05-26T00:35:16.458Z,1018.8
2019-05-26T00:36:16.525Z,1018.8
2019-05-26T00:37:16.484Z,1018.9
2019-05-26T00:38:16.523Z,1018.9
2019-05-26T00:39:16.514Z,1018.9
2019-05-26T00:40:16.496Z,1018.9
2019-05-26T00:41:16.506Z,1018.9
2019-05-26T00:42:16.514Z,1018.9
2019-05-26T00:43:16.540Z,1018.9
2019-05-26T00:44:16.529Z,1018.8
2019-05-26T00:45:16.518Z,1018.8
2019-05-26T00:46:16.618Z,1018.8
2019-05-26T00:47:16.608Z,1018.8
2019-05-26T00:48:16.695Z,1018.7
2019-05-26T00:49:16.801Z,1018.7
2019-05-26T00:50:16.791Z,1018.7
2019-05-26T00:51:16.869Z,1018.7
2019-05-26T00:52:16.848Z,1018.7
2019-05-26T00:53:16.882Z,1018.7
2019-05-26T00:54:16.995Z,1018.6
2019-05-26T00:55:16.980Z,1018.5
2019-05-26T00:56:17.048Z,1018.5
2019-05-26T00:57:17.084Z,1018.6
2019-05-26T00:58:17.081Z,1018.6
2019-05-26T00:59:17.196Z,1018.5
2019-05-26T01:00:17.159Z,1018.5
2019-05-26T01:01:17.234Z,1018.5
2019-05-26T01:02:17.309Z,1018.5
2019-05-26T01:03:17.324Z,1018.5
2019-05-26T01:04:17.386Z,1018.5
2019-05-26T01:05:17.436Z,1018.4
2019-05-26T01:06:17.482Z,1018.4
2019-05-26T01:07:17.489Z,1018.5
2019-05-26T01:08:17.481Z,1018.5
2019-05-26T01:09:17.535Z,1018.6
2019-05-26T01:10:17.540Z,1018.6
2019-05-26T01:11:17.626Z,1018.6
2019-05-26T01:12:17.653Z,1018.7
2019-05-26T01:13:17.735Z,1018.7
2019-05-26T01:14:17.765Z,1018.7
2019-05-26T01:15:17.797Z,1018.7
2019-05-26T01:16:17.810Z,1018.8
2019-05-26T01:17:17.865Z,1018.7
2019-05-26T01:18:17.920Z,1018.7
2019-05-26T01:19:18.016Z,1018.7
2019-05-26T01:20:17.992Z,1018.7
2019-05-26T01:21:18.047Z,1018.7
2019-05-26T01:22:18.027Z,1018.8
2019-05-26T01:23:18.068Z,1018.7
2019-05-26T01:24:18.098Z,1018.7
2019-05-26T01:25:18.131Z,1018.7
2019-05-26T01:26:18.201Z,1018.7
2019-05-26T01:27:18.223Z,1018.7
2019-05-26T01:28:18.231Z,1018.7
2019-05-26T01:29:18.303Z,1018.7
2019-05-26T01:30:18.310Z,1018.7
2019-05-26T01:31:18.349Z,1018.8
2019-05-26T01:32:18.372Z,1018.7
2019-05-26T01:33:18.376Z,1018.7
2019-05-26T01:34:18.431Z,1018.8
2019-05-26T01:35:18.526Z,1018.7
2019-05-26T01:36:18.533Z,1018.7
2019-05-26T01:37:18.587Z,1018.8
2019-05-26T01:38:24.037Z,1018.7
2019-05-26T01:39:18.639Z,1018.7
2019-05-26T01:40:18.735Z,1018.8
2019-05-26T01:41:18.730Z,1018.7
2019-05-26T01:42:18.753Z,1018.7
2019-05-26T01:43:18.783Z,1018.7
2019-05-26T01:44:18.823Z,1018.7
2019-05-26T01:45:18.911Z,1018.7
2019-05-26T01:46:18.918Z,1018.7
2019-05-26T01:47:18.947Z,1018.8
2019-05-26T01:48:18.974Z,1018.8
2019-05-26T01:49:18.987Z,1018.8
2019-05-26T01:50:19.016Z,1018.7
2019-05-26T01:51:19.026Z,1018.8
2019-05-26T01:52:19.043Z,1018.8
2019-05-26T01:53:19.044Z,1018.7
2019-05-26T01:54:19.066Z,1018.8
2019-05-26T01:55:19.142Z,1018.8
2019-05-26T01:56:19.153Z,1018.8
2019-05-26T01:57:19.171Z,1018.8
2019-05-26T01:58:19.149Z,1018.8
2019-05-26T01:59:19.250Z,1018.7
2019-05-26T02:00:19.226Z,1018.7
2019-05-26T02:01:19.265Z,1018.7
2019-05-26T02:02:19.275Z,1018.6
2019-05-26T02:03:19.290Z,1018.6
2019-05-26T02:04:19.311Z,1018.6
2019-05-26T02:05:19.320Z,1018.7
2019-05-26T02:06:19.379Z,1018.7
2019-05-26T02:07:19.448Z,1018.6
2019-05-26T02:08:19.406Z,1018.6
2019-05-26T02:09:19.417Z,1018.6
2019-05-26T02:10:19.443Z,1018.6
2019-05-26T02:11:19.478Z,1018.6
2019-05-26T02:12:19.505Z,1018.6
2019-05-26T02:13:19.483Z,1018.6
2019-05-26T02:14:19.506Z,1018.7
2019-05-26T02:15:19.553Z,1018.6
2019-05-26T02:16:19.508Z,1018.6
2019-05-26T02:17:19.526Z,1018.5
2019-05-26T02:18:19.517Z,1018.6
2019-05-26T02:19:19.526Z,1018.6
2019-05-26T02:20:19.597Z,1018.6
2019-05-26T02:21:19.546Z,1018.6
2019-05-26T02:22:19.589Z,1018.5
2019-05-26T02:23:19.556Z,1018.6
2019-05-26T02:24:19.554Z,1018.6
2019-05-26T02:25:19.563Z,1018.5
2019-05-26T02:26:19.567Z,1018.5
2019-05-26T02:27:19.677Z,1018.4
2019-05-26T02:28:19.655Z,1018.5
2019-05-26T02:29:19.648Z,1018.5
2019-05-26T02:30:19.592Z,1018.5
2019-05-26T02:31:19.702Z,1018.5
2019-05-26T02:32:19.658Z,1018.4
2019-05-26T02:33:19.743Z,1018.6
2019-05-26T02:34:19.792Z,1018.5
2019-05-26T02:35:19.848Z,1018.5
2019-05-26T02:36:19.852Z,1018.5
2019-05-26T02:37:19.901Z,1018.6
2019-05-26T02:38:19.999Z,1018.5
2019-05-26T02:39:20.025Z,1018.6
2019-05-26T02:40:20.087Z,1018.5
2019-05-26T02:41:20.158Z,1018.5
2019-05-26T02:42:20.220Z,1018.6
2019-05-26T02:43:20.376Z,1018.6
2019-05-26T02:44:20.401Z,1018.5
2019-05-26T02:45:20.349Z,1018.5
2019-05-26T02:46:20.438Z,1018.5
2019-05-26T02:47:20.435Z,1018.5
2019-05-26T02:48:20.453Z,1018.4
2019-05-26T02:49:20.602Z,1018.5
2019-05-26T02:50:20.639Z,1018.5
2019-05-26T02:51:20.753Z,1018.4
2019-05-26T02:52:20.711Z,1018.4
2019-05-26T02:53:24.471Z,1018.5
2019-05-26T02:54:20.813Z,1018.5
2019-05-26T02:55:20.983Z,1018.6
2019-05-26T02:56:20.931Z,1018.5
2019-05-26T02:57:20.919Z,1018.5
2019-05-26T02:58:20.912Z,1018.5
2019-05-26T02:59:20.950Z,1018.4
2019-05-26T03:00:21.014Z,1018.5
2019-05-26T03:01:21.064Z,1018.5
2019-05-26T03:02:21.068Z,1018.5
2019-05-26T03:03:21.069Z,1018.4
2019-05-26T03:04:21.092Z,1018.4
2019-05-26T03:05:21.246Z,1018.4
2019-05-26T03:06:21.201Z,1018.3
2019-05-26T03:07:21.366Z,1018.4
2019-05-26T03:08:21.450Z,1018.3
2019-05-26T03:09:23.435Z,1018.4
2019-05-26T03:10:21.496Z,1018.3
2019-05-26T03:11:21.492Z,1018.3
2019-05-26T03:12:21.461Z,1018.3
2019-05-26T03:13:21.545Z,1018.4
2019-05-26T03:14:21.551Z,1018.3
2019-05-26T03:15:21.603Z,1018.3
2019-05-26T03:16:21.613Z,1018.3
2019-05-26T03:17:21.686Z,1018.3
2019-05-26T03:18:21.723Z,1018.3
2019-05-26T03:19:21.690Z,1018.3
2019-05-26T03:20:21.697Z,1018.3
2019-05-26T03:21:21.828Z,1018.3
2019-05-26T03:22:21.823Z,1018.4
2019-05-26T03:23:21.861Z,1018.3
2019-05-26T03:24:21.863Z,1018.3
2019-05-26T03:25:21.916Z,1018.3
2019-05-26T03:26:21.979Z,1018.4
2019-05-26T03:27:22.055Z,1018.4
2019-05-26T03:28:22.112Z,1018.3
2019-05-26T03:29:22.093Z,1018.3
2019-05-26T03:30:22.198Z,1018.4
2019-05-26T03:31:24.664Z,1018.4
2019-05-26T03:32:22.205Z,1018.3
2019-05-26T03:33:22.680Z,1018.3
2019-05-26T03:34:22.268Z,1018.4
2019-05-26T03:35:22.280Z,1018.4
2019-05-26T03:36:22.244Z,1018.4
2019-05-26T03:37:22.355Z,1018.4
2019-05-26T03:38:22.279Z,1018.4
2019-05-26T03:39:42.203Z,1018.4
2019-05-26T03:40:22.541Z,1018.4
2019-05-26T03:41:22.642Z,1018.4
2019-05-26T03:42:22.460Z,1018.5
2019-05-26T03:43:22.455Z,1018.6
2019-05-26T03:44:22.638Z,1018.5
2019-05-26T03:45:22.579Z,1018.5
2019-05-26T03:46:22.605Z,1018.5
2019-05-26T03:47:22.694Z,1018.5
2019-05-26T03:48:22.718Z,1018.5
2019-05-26T03:49:22.651Z,1018.6
2019-05-26T03:50:22.923Z,1018.6
2019-05-26T03:51:22.721Z,1018.5
2019-05-26T03:52:22.916Z,1018.5
2019-05-26T03:53:22.743Z,1018.5
2019-05-26T03:54:22.890Z,1018.5
2019-05-26T03:55:22.926Z,1018.5
2019-05-26T03:56:22.965Z,1018.5
2019-05-26T03:57:22.873Z,1018.5
2019-05-26T03:58:22.978Z,1018.5
2019-05-26T03:59:22.996Z,1018.5
2019-05-26T04:00:22.871Z,1018.6
2019-05-26T04:01:22.830Z,1018.5
2019-05-26T04:02:54.860Z,1018.5
2019-05-26T04:03:22.994Z,1018.4
2019-05-26T04:04:23.091Z,1018.4
2019-05-26T04:05:23.019Z,1018.4
2019-05-26T04:06:22.903Z,1018.4
2019-05-26T04:07:23.986Z,1018.4
2019-05-26T04:08:23.050Z,1018.5
2019-05-26T04:09:22.923Z,1018.5
2019-05-26T04:10:22.933Z,1018.4
2019-05-26T04:11:22.950Z,1018.3
2019-05-26T04:12:23.054Z,1018.4
2019-05-26T04:13:22.964Z,1018.4
2019-05-26T04:14:22.936Z,1018.4
2019-05-26T04:15:23.025Z,1018.4
2019-05-26T04:16:22.964Z,1018.4
2019-05-26T04:17:23.099Z,1018.4
2019-05-26T04:18:22.990Z,1018.4
2019-05-26T04:19:23.027Z,1018.4
2019-05-26T04:20:23.046Z,1018.3
2019-05-26T04:21:23.040Z,1018.4
2019-05-26T04:22:23.134Z,1018.4
2019-05-26T04:23:23.241Z,1018.3
2019-05-26T04:24:23.217Z,1018.3
2019-05-26T04:25:23.294Z,1018.3
2019-05-26T04:26:23.358Z,1018.4
2019-05-26T04:27:23.437Z,1018.3
2019-05-26T04:28:23.540Z,1018.3
2019-05-26T04:29:23.522Z,1018.3
2019-05-26T04:30:23.536Z,1018.2
2019-05-26T04:31:23.587Z,1018.2
2019-05-26T04:32:23.621Z,1018.2
2019-05-26T04:33:23.789Z,1018.2
2019-05-26T04:34:23.747Z,1018.3
2019-05-26T04:35:23.839Z,1018.2
2019-05-26T04:36:23.894Z,1018.2
2019-05-26T04:37:23.948Z,1018.2
2019-05-26T04:38:24.076Z,1018.2
2019-05-26T04:39:24.059Z,1018.2
2019-05-26T04:40:26.866Z,1018.2
2019-05-26T04:41:24.177Z,1018.2
2019-05-26T04:42:24.241Z,1018.1
2019-05-26T04:43:24.342Z,1018.2
2019-05-26T04:44:24.367Z,1018.2
2019-05-26T04:45:24.529Z,1018.2
2019-05-26T04:46:24.515Z,1018.1
2019-05-26T04:47:24.553Z,1018.1
2019-05-26T04:48:24.540Z,1018.2
2019-05-26T04:49:24.604Z,1018.1
2019-05-26T04:50:24.720Z,1018.2
2019-05-26T04:51:24.733Z,1018.3
2019-05-26T04:52:24.745Z,1018.2
2019-05-26T04:53:24.815Z,1018.2
2019-05-26T04:54:24.856Z,1018.2
2019-05-26T04:55:24.942Z,1018.3
2019-05-26T04:56:25.050Z,1018.2
2019-05-26T04:57:25.008Z,1018.3
2019-05-26T04:58:25.037Z,1018.2
2019-05-26T04:59:25.059Z,1018.2
2019-05-26T05:00:27.330Z,1018.2
2019-05-26T05:01:25.163Z,1018.2
2019-05-26T05:02:25.175Z,1018.2
2019-05-26T05:03:25.261Z,1018.2
2019-05-26T05:04:25.190Z,1018.2
2019-05-26T05:05:25.291Z,1018.2
2019-05-26T05:06:25.288Z,1018.1
2019-05-26T05:07:28.209Z,1018.2
2019-05-26T05:08:25.272Z,1018.1
2019-05-26T05:09:25.390Z,1018.1
2019-05-26T05:10:39.366Z,1018.1
2019-05-26T05:11:25.389Z,1018
2019-05-26T05:12:25.452Z,1018.1
2019-05-26T05:13:25.434Z,1018
2019-05-26T05:14:25.523Z,1018.1
2019-05-26T05:15:25.623Z,1018
2019-05-26T05:16:25.593Z,1018.1
2019-05-26T05:17:25.580Z,1018.1
2019-05-26T05:18:25.635Z,1018.1
2019-05-26T05:19:25.739Z,1018.1
2019-05-26T05:20:25.660Z,1018.2
2019-05-26T05:21:25.689Z,1018.2
2019-05-26T05:22:25.763Z,1018.2
2019-05-26T05:23:25.798Z,1018.1
2019-05-26T05:24:25.825Z,1018.1
2019-05-26T05:25:25.881Z,1018.1
2019-05-26T05:26:25.919Z,1018.2
2019-05-26T05:27:25.886Z,1018.2
2019-05-26T05:28:25.943Z,1018.2
2019-05-26T05:29:25.933Z,1018.1
2019-05-26T05:30:25.946Z,1018.1
2019-05-26T05:31:25.974Z,1018.2
2019-05-26T05:32:26.041Z,1018
2019-05-26T05:33:26.065Z,1018.1
2019-05-26T05:34:26.047Z,1018.1
2019-05-26T05:35:26.094Z,1018.1
2019-05-26T05:36:28.462Z,1018.2
2019-05-26T05:37:26.132Z,1018.1
2019-05-26T05:38:26.287Z,1018.1
2019-05-26T05:39:26.150Z,1018.1
2019-05-26T05:40:26.244Z,1018.1
2019-05-26T05:41:26.209Z,1018.1
2019-05-26T05:42:26.212Z,1018.1
2019-05-26T05:43:26.948Z,1018.1
2019-05-26T05:44:26.274Z,1018.1
2019-05-26T05:45:26.328Z,1018.1
2019-05-26T05:46:26.337Z,1018.1
2019-05-26T05:47:26.369Z,1018
2019-05-26T05:48:26.317Z,1018
2019-05-26T05:49:26.297Z,1018
2019-05-26T05:50:26.335Z,1018
2019-05-26T05:51:26.362Z,1018
2019-05-26T05:52:26.365Z,1018.1
2019-05-26T05:53:26.344Z,1018.1
2019-05-26T05:54:26.337Z,1018.1
2019-05-26T05:55:28.997Z,1017.9
2019-05-26T05:56:26.391Z,1017.9
2019-05-26T05:57:26.370Z,1018
2019-05-26T05:58:26.366Z,1018
2019-05-26T05:59:26.368Z,1018
2019-05-26T06:00:26.381Z,1018
2019-05-26T06:01:26.446Z,1018
2019-05-26T06:02:26.740Z,1018
2019-05-26T06:03:26.393Z,1018
2019-05-26T06:04:26.443Z,1018
2019-05-26T06:05:26.451Z,1018
2019-05-26T06:06:26.549Z,1017.9
2019-05-26T06:07:26.559Z,1018
2019-05-26T06:08:26.584Z,1018
2019-05-26T06:09:26.655Z,1018
2019-05-26T06:10:26.713Z,1018
2019-05-26T06:11:26.802Z,1017.9
2019-05-26T06:12:26.809Z,1018
2019-05-26T06:13:26.862Z,1018
2019-05-26T06:14:26.917Z,1017.9
2019-05-26T06:15:26.987Z,1017.9
2019-05-26T06:16:27.062Z,1018
2019-05-26T06:17:27.077Z,1017.9
2019-05-26T06:18:27.181Z,1017.8
2019-05-26T06:19:27.234Z,1017.8
2019-05-26T06:20:27.282Z,1017.8
2019-05-26T06:21:27.314Z,1017.8
2019-05-26T06:22:27.338Z,1017.8
2019-05-26T06:23:36.908Z,1017.8
2019-05-26T06:24:27.391Z,1017.7
2019-05-26T06:25:27.438Z,1017.7
2019-05-26T06:26:27.476Z,1017.6
2019-05-26T06:27:27.567Z,1017.6
2019-05-26T06:28:27.661Z,1017.6
2019-05-26T06:29:27.586Z,1017.6
2019-05-26T06:30:27.624Z,1017.6
2019-05-26T06:31:27.650Z,1017.6
2019-05-26T06:32:27.731Z,1017.5
2019-05-26T06:33:27.805Z,1017.5
2019-05-26T06:34:27.882Z,1017.6
2019-05-26T06:35:27.880Z,1017.5
2019-05-26T06:36:27.956Z,1017.5
2019-05-26T06:37:28.067Z,1017.4
2019-05-26T06:38:28.091Z,1017.5
2019-05-26T06:39:28.157Z,1017.4
2019-05-26T06:40:28.182Z,1017.4
2019-05-26T06:41:33.250Z,1017.4
2019-05-26T06:42:28.252Z,1017.4
2019-05-26T06:43:28.224Z,1017.4
2019-05-26T06:44:28.305Z,1017.3
2019-05-26T06:45:28.328Z,1017.3
2019-05-26T06:46:28.365Z,1017.3
2019-05-26T06:47:28.373Z,1017.4
2019-05-26T06:48:28.598Z,1017.3
2019-05-26T06:49:28.403Z,1017.3
2019-05-26T06:50:28.941Z,1017.4
2019-05-26T06:51:30.024Z,1017.3
2019-05-26T06:52:28.484Z,1017.3
2019-05-26T06:53:28.716Z,1017.4
2019-05-26T06:54:28.803Z,1017.4
2019-05-26T06:55:28.607Z,1017.3
2019-05-26T06:56:28.716Z,1017.3
2019-05-26T06:57:28.677Z,1017.4
2019-05-26T06:58:28.686Z,1017.3
2019-05-26T06:59:28.708Z,1017.2
2019-05-26T07:00:28.706Z,1017.3
2019-05-26T07:01:28.769Z,1017.2
2019-05-26T07:02:28.749Z,1017.2
2019-05-26T07:03:28.821Z,1017.1
2019-05-26T07:04:28.856Z,1017.1
2019-05-26T07:05:28.866Z,1017.1
2019-05-26T07:06:28.927Z,1017.2
2019-05-26T07:07:28.964Z,1017.1
2019-05-26T07:08:28.993Z,1017.1
2019-05-26T07:09:29.080Z,1017.1
2019-05-26T07:10:29.071Z,1017.2
2019-05-26T07:11:29.089Z,1017
2019-05-26T07:12:29.110Z,1017
2019-05-26T07:13:29.183Z,1016.9
2019-05-26T07:14:29.222Z,1017.1
2019-05-26T07:15:29.219Z,1017
2019-05-26T07:16:37.875Z,1017
2019-05-26T07:17:29.258Z,1016.9
2019-05-26T07:18:29.307Z,1017
2019-05-26T07:19:29.387Z,1017
2019-05-26T07:20:29.513Z,1017
2019-05-26T07:21:29.443Z,1017
2019-05-26T07:22:29.506Z,1017.1
2019-05-26T07:23:29.677Z,1017
2019-05-26T07:24:29.758Z,1017
2019-05-26T07:25:29.851Z,1016.9
2019-05-26T07:26:29.487Z,1017
2019-05-26T07:27:29.504Z,1017.1
2019-05-26T07:28:29.488Z,1017
2019-05-26T07:29:29.837Z,1017
2019-05-26T07:30:29.504Z,1016.9
2019-05-26T07:31:29.541Z,1017
2019-05-26T07:32:29.598Z,1017
2019-05-26T07:33:29.644Z,1016.9
2019-05-26T07:34:29.604Z,1016.9
2019-05-26T07:35:32.744Z,1016.8
2019-05-26T07:36:29.673Z,1016.9
2019-05-26T07:37:29.666Z,1016.9
2019-05-26T07:38:29.711Z,1016.7
2019-05-26T07:39:29.685Z,1016.8
2019-05-26T07:40:29.678Z,1016.9
2019-05-26T07:41:29.800Z,1016.8
2019-05-26T07:42:29.754Z,1016.8
2019-05-26T07:43:29.769Z,1016.7
2019-05-26T07:44:29.742Z,1016.7
2019-05-26T07:45:29.805Z,1016.8
2019-05-26T07:46:29.751Z,1016.7
2019-05-26T07:47:29.803Z,1016.8
2019-05-26T07:48:35.734Z,1016.8
2019-05-26T07:49:29.786Z,1016.8
2019-05-26T07:50:29.795Z,1016.7
2019-05-26T07:51:29.769Z,1016.7
2019-05-26T07:52:29.750Z,1016.7
2019-05-26T07:53:29.866Z,1016.7
2019-05-26T07:54:29.761Z,1016.7
2019-05-26T07:55:29.876Z,1016.7
2019-05-26T07:56:29.900Z,1016.6
2019-05-26T07:57:29.897Z,1016.7
2019-05-26T07:58:30.019Z,1016.6
2019-05-26T07:59:30.029Z,1016.7
2019-05-26T08:00:30.075Z,1016.6
2019-05-26T08:01:36.016Z,1016.5
2019-05-26T08:02:30.153Z,1016.6
2019-05-26T08:03:30.274Z,1016.6
2019-05-26T08:04:30.268Z,1016.5
2019-05-26T08:05:30.377Z,1016.5
2019-05-26T08:06:30.382Z,1016.5
2019-05-26T08:07:30.429Z,1016.4
2019-05-26T08:08:30.534Z,1016.5
2019-05-26T08:09:30.524Z,1016.5
2019-05-26T08:10:30.564Z,1016.5
2019-05-26T08:11:30.638Z,1016.5
2019-05-26T08:12:30.887Z,1016.4
2019-05-26T08:13:30.769Z,1016.4
2019-05-26T08:14:30.765Z,1016.4
2019-05-26T08:15:30.820Z,1016.4
2019-05-26T08:16:31.458Z,1016.4
2019-05-26T08:17:30.970Z,1016.4
2019-05-26T08:18:30.947Z,1016.4
2019-05-26T08:19:31.097Z,1016.4
2019-05-26T08:20:31.048Z,1016.3
2019-05-26T08:21:31.214Z,1016.3
2019-05-26T08:22:31.165Z,1016.3
2019-05-26T08:23:31.184Z,1016.2
2019-05-26T08:24:31.215Z,1016.2
2019-05-26T08:25:31.227Z,1016.2
2019-05-26T08:26:31.281Z,1016.2
2019-05-26T08:27:31.417Z,1016.1
2019-05-26T08:28:31.440Z,1016.2
2019-05-26T08:29:31.498Z,1016.1
2019-05-26T08:30:31.512Z,1016.1
2019-05-26T08:31:31.566Z,1016.1
2019-05-26T08:32:31.564Z,1016.2
2019-05-26T08:33:31.550Z,1016.1
2019-05-26T08:34:31.608Z,1016.1
2019-05-26T08:35:31.670Z,1016.1
2019-05-26T08:36:31.758Z,1016
2019-05-26T08:37:31.872Z,1016
2019-05-26T08:38:31.850Z,1016
2019-05-26T08:39:31.847Z,1016
2019-05-26T08:40:31.915Z,1016
2019-05-26T08:41:31.928Z,1016.1
2019-05-26T08:42:44.041Z,1015.9
2019-05-26T08:43:31.993Z,1016
2019-05-26T08:44:31.991Z,1016
2019-05-26T08:45:32.019Z,1015.9
2019-05-26T08:46:32.059Z,1016
2019-05-26T08:47:32.091Z,1016
2019-05-26T08:48:32.079Z,1016
2019-05-26T08:49:32.063Z,1016
2019-05-26T08:50:34.354Z,1016
2019-05-26T08:51:32.143Z,1016
2019-05-26T08:52:32.149Z,1016
2019-05-26T08:53:32.186Z,1016
2019-05-26T08:54:32.217Z,1015.9
2019-05-26T08:55:32.291Z,1015.9
2019-05-26T08:56:32.269Z,1015.9
2019-05-26T08:57:32.315Z,1015.8
2019-05-26T08:58:32.297Z,1015.9
2019-05-26T08:59:32.383Z,1015.9
2019-05-26T09:00:32.400Z,1015.9
2019-05-26T09:01:32.407Z,1015.9
2019-05-26T09:02:32.396Z,1015.8
2019-05-26T09:03:32.448Z,1015.8
2019-05-26T09:04:32.480Z,1015.9
2019-05-26T09:05:32.479Z,1015.8
2019-05-26T09:06:32.506Z,1015.9
2019-05-26T09:07:32.535Z,1015.9
2019-05-26T09:08:32.579Z,1015.8
2019-05-26T09:09:32.597Z,1015.8
2019-05-26T09:10:32.651Z,1015.8
2019-05-26T09:11:32.596Z,1015.6
2019-05-26T09:12:32.620Z,1015.8
2019-05-26T09:13:32.673Z,1015.8
2019-05-26T09:14:32.657Z,1015.7
2019-05-26T09:15:32.715Z,1015.7
2019-05-26T09:16:32.679Z,1015.7
2019-05-26T09:17:32.741Z,1015.7
2019-05-26T09:18:32.765Z,1015.7
2019-05-26T09:19:32.749Z,1015.6
2019-05-26T09:20:32.806Z,1015.5
2019-05-26T09:21:32.801Z,1015.5
2019-05-26T09:22:32.774Z,1015.5
2019-05-26T09:23:32.823Z,1015.5
2019-05-26T09:24:32.835Z,1015.5
2019-05-26T09:25:32.860Z,1015.6
2019-05-26T09:26:32.841Z,1015.6
2019-05-26T09:27:32.833Z,1015.6
2019-05-26T09:28:32.849Z,1015.6
2019-05-26T09:29:32.852Z,1015.6
2019-05-26T09:30:33.904Z,1015.5
2019-05-26T09:31:34.183Z,1015.5
2019-05-26T09:32:32.848Z,1015.5
2019-05-26T09:33:32.866Z,1015.4
2019-05-26T09:34:32.856Z,1015.4
2019-05-26T09:35:32.893Z,1015.4
2019-05-26T09:36:40.132Z,1015.4
2019-05-26T09:37:32.952Z,1015.4
2019-05-26T09:38:33.022Z,1015.5
2019-05-26T09:39:33.014Z,1015.4
2019-05-26T09:40:33.073Z,1015.4
2019-05-26T09:41:33.177Z,1015.4
2019-05-26T09:42:33.159Z,1015.4
2019-05-26T09:43:33.237Z,1015.4
2019-05-26T09:44:33.311Z,1015.3
2019-05-26T09:45:33.360Z,1015.4
2019-05-26T09:46:33.512Z,1015.3
2019-05-26T09:47:33.444Z,1015.4
2019-05-26T09:48:33.540Z,1015.4
2019-05-26T09:49:33.604Z,1015.3
2019-05-26T09:50:33.635Z,1015.3
2019-05-26T09:51:33.683Z,1015.1
2019-05-26T09:52:33.713Z,1015.2
2019-05-26T09:53:33.748Z,1015.2
2019-05-26T09:54:33.873Z,1015.3
2019-05-26T09:55:33.904Z,1015.3
2019-05-26T09:56:33.905Z,1015.3
2019-05-26T09:57:33.945Z,1015.2
2019-05-26T09:58:33.945Z,1015.3
2019-05-26T09:59:34.018Z,1015.1
2019-05-26T10:00:34.003Z,1015.3
2019-05-26T10:01:34.070Z,1015.3
2019-05-26T10:02:34.023Z,1015.3
2019-05-26T10:03:34.029Z,1015.2
2019-05-26T10:04:34.039Z,1015.2
2019-05-26T10:05:34.101Z,1015.3
2019-05-26T10:06:34.178Z,1015.2
2019-05-26T10:07:34.295Z,1015.2
2019-05-26T10:08:34.146Z,1015.2
2019-05-26T10:09:34.222Z,1015.2
2019-05-26T10:10:34.264Z,1015.3
2019-05-26T10:11:34.315Z,1015.3
2019-05-26T10:12:34.436Z,1015.3
2019-05-26T10:13:34.447Z,1015.3
2019-05-26T10:14:34.465Z,1015.3
2019-05-26T10:15:34.499Z,1015.2
2019-05-26T10:16:34.512Z,1015.2
2019-05-26T10:17:34.578Z,1015.1
2019-05-26T10:18:34.581Z,1015.2
2019-05-26T10:19:34.655Z,1015.2
2019-05-26T10:20:34.621Z,1015.2
2019-05-26T10:21:34.660Z,1015.1
2019-05-26T10:22:34.694Z,1015.1
2019-05-26T10:23:34.666Z,1015
2019-05-26T10:24:34.748Z,1015
2019-05-26T10:25:34.765Z,1015
2019-05-26T10:26:34.865Z,1014.9
2019-05-26T10:27:34.839Z,1015.1
2019-05-26T10:28:34.888Z,1015.1
2019-05-26T10:29:34.912Z,1015.2
2019-05-26T10:30:34.917Z,1015.1
2019-05-26T10:31:35.025Z,1015
2019-05-26T10:32:35.047Z,1015.1
2019-05-26T10:33:35.041Z,1015.1
2019-05-26T10:34:35.121Z,1015.1
2019-05-26T10:35:35.106Z,1015
2019-05-26T10:36:35.093Z,1015.1
2019-05-26T10:37:35.263Z,1015.1
2019-05-26T10:38:35.141Z,1015.2
2019-05-26T10:39:35.216Z,1015.1
2019-05-26T10:40:35.218Z,1015
2019-05-26T10:41:35.234Z,1015.1
2019-05-26T10:42:35.274Z,1015
2019-05-26T10:43:46.637Z,1015
2019-05-26T10:44:35.363Z,1015
2019-05-26T10:45:35.358Z,1015
2019-05-26T10:46:35.356Z,1015
2019-05-26T10:47:35.388Z,1015
2019-05-26T10:48:35.457Z,1014.9
2019-05-26T10:49:35.489Z,1014.9
2019-05-26T10:50:35.483Z,1015
2019-05-26T10:51:35.462Z,1015
2019-05-26T10:52:35.503Z,1015
2019-05-26T10:53:35.557Z,1015
2019-05-26T10:54:35.599Z,1015.1
2019-05-26T10:55:35.778Z,1015
2019-05-26T10:56:35.512Z,1015.1
2019-05-26T10:57:35.570Z,1015
2019-05-26T10:58:35.589Z,1015
2019-05-26T10:59:35.669Z,1014.9
2019-05-26T11:00:35.640Z,1015
2019-05-26T11:01:35.906Z,1014.9
2019-05-26T11:02:35.642Z,1014.9
2019-05-26T11:03:35.661Z,1014.8
2019-05-26T11:04:35.722Z,1014.8
2019-05-26T11:05:35.742Z,1014.8
2019-05-26T11:06:35.731Z,1014.8
2019-05-26T11:07:35.738Z,1014.9
2019-05-26T11:08:35.699Z,1015
2019-05-26T11:09:35.766Z,1014.9
2019-05-26T11:10:35.727Z,1014.9
2019-05-26T11:11:35.729Z,1014.9
2019-05-26T11:12:35.738Z,1014.8
2019-05-26T11:13:35.736Z,1014.8
2019-05-26T11:14:35.776Z,1014.8
2019-05-26T11:15:35.791Z,1014.8
2019-05-26T11:16:35.845Z,1014.8
2019-05-26T11:17:35.783Z,1014.8
2019-05-26T11:18:35.798Z,1014.8
2019-05-26T11:19:35.865Z,1014.9
2019-05-26T11:20:35.881Z,1014.8
2019-05-26T11:21:35.970Z,1014.7
2019-05-26T11:22:36.000Z,1014.8
2019-05-26T11:23:35.993Z,1014.7
2019-05-26T11:24:36.004Z,1014.6
2019-05-26T11:25:36.000Z,1014.6
2019-05-26T11:26:36.085Z,1014.6
2019-05-26T11:27:36.129Z,1014.7
2019-05-26T11:28:36.179Z,1014.7
2019-05-26T11:29:36.215Z,1014.6
2019-05-26T11:30:36.277Z,1014.4
2019-05-26T11:31:38.700Z,1014.5
2019-05-26T11:32:36.398Z,1014.6
2019-05-26T11:33:36.487Z,1014.5
2019-05-26T11:34:36.485Z,1014.4
2019-05-26T11:35:36.540Z,1014.5
2019-05-26T11:36:36.618Z,1014.4
2019-05-26T11:37:36.605Z,1014.4
2019-05-26T11:38:36.663Z,1014.3
2019-05-26T11:39:36.737Z,1014.3
2019-05-26T11:40:36.773Z,1014.3
2019-05-26T11:41:36.786Z,1014.3
2019-05-26T11:42:36.838Z,1014.3
2019-05-26T11:43:36.920Z,1014.3
2019-05-26T11:44:36.918Z,1014.4
2019-05-26T11:45:36.985Z,1014.4
2019-05-26T11:46:37.028Z,1014.5
2019-05-26T11:47:37.094Z,1014.3
2019-05-26T11:48:39.078Z,1014.3
2019-05-26T11:49:37.166Z,1014.3
2019-05-26T11:50:37.206Z,1014.2
2019-05-26T11:51:37.260Z,1014.3
2019-05-26T11:52:37.334Z,1014.2
2019-05-26T11:53:37.376Z,1014.1
2019-05-26T11:54:37.422Z,1014.1
2019-05-26T11:55:37.441Z,1014.1
2019-05-26T11:56:37.522Z,1014.1
2019-05-26T11:57:37.781Z,1014
2019-05-26T11:58:37.650Z,1014
2019-05-26T11:59:37.630Z,1013.9
2019-05-26T12:00:37.650Z,1014
2019-05-26T12:01:37.647Z,1014
2019-05-26T12:02:37.712Z,1014.1
2019-05-26T12:03:37.805Z,1014.1
2019-05-26T12:04:37.808Z,1014.1
2019-05-26T12:05:37.795Z,1013.9
2019-05-26T12:06:37.863Z,1013.9
2019-05-26T12:07:37.927Z,1013.9
2019-05-26T12:08:37.987Z,1013.8
2019-05-26T12:09:37.985Z,1013.9
2019-05-26T12:10:38.029Z,1013.8
2019-05-26T12:11:38.055Z,1013.9
2019-05-26T12:12:38.118Z,1013.8
2019-05-26T12:13:38.134Z,1013.9
2019-05-26T12:14:38.172Z,1013.9
2019-05-26T12:15:38.238Z,1013.8
2019-05-26T12:16:38.318Z,1013.8
2019-05-26T12:17:38.324Z,1013.7
2019-05-26T12:18:38.438Z,1013.7
2019-05-26T12:19:38.341Z,1013.8
2019-05-26T12:20:38.402Z,1013.9
2019-05-26T12:21:38.442Z,1013.8
2019-05-26T12:22:38.467Z,1013.9
2019-05-26T12:23:38.484Z,1013.8
2019-05-26T12:24:38.461Z,1013.9
2019-05-26T12:25:38.512Z,1013.8
2019-05-26T12:26:38.512Z,1013.7
2019-05-26T12:27:38.612Z,1013.8
2019-05-26T12:28:38.574Z,1013.6
2019-05-26T12:29:38.598Z,1013.6
2019-05-26T12:30:38.640Z,1013.7
2019-05-26T12:31:38.623Z,1013.5
2019-05-26T12:32:38.677Z,1013.6
2019-05-26T12:33:38.671Z,1013.5
2019-05-26T12:34:38.693Z,1013.6